Time;durP1;ratioP1;P1;durP2;ratioP2;P2;SDS_P1;SDS_P2;PMS_P1;PMS_P2;Temp;Humidity;BMP_temperature;BMP_pressure;BME280_temperature;BME280_humidity;BME280_pressure;Samples;Min_cycle;Max_cycle;Signal;HPM_P1;HPM_P2
2022/03/06 00:03:56;;;;;;;7.40;2.90;;;;;;;3.13;100.00;102572.31;10141309;28;20489;-72
2022/03/06 00:08:53;;;;;;;9.55;4.13;;;;;;;3.15;100.00;102570.19;10134471;28;20042;-72
2022/03/06 00:13:50;;;;;;;8.65;3.00;;;;;;;3.13;100.00;102577.72;10143826;28;20043;-71
2022/03/06 00:18:47;;;;;;;7.78;3.20;;;;;;;3.17;100.00;102578.09;10135458;28;20049;-71
2022/03/06 00:23:43;;;;;;;8.27;3.22;;;;;;;3.20;100.00;102576.81;10147490;28;20050;-72
2022/03/06 00:28:40;;;;;;;6.30;3.25;;;;;;;3.17;100.00;102589.72;10138779;28;20508;-72
2022/03/06 00:33:36;;;;;;;7.25;3.05;;;;;;;3.21;100.00;102584.72;10151865;28;20042;-71
2022/03/06 00:38:33;;;;;;;6.95;2.42;;;;;;;3.08;100.00;102580.25;10146802;28;20570;-71
2022/03/06 00:43:30;;;;;;;7.22;3.25;;;;;;;3.23;100.00;102581.78;10154316;28;20182;-72
2022/03/06 00:48:26;;;;;;;9.45;2.95;;;;;;;3.16;100.00;102582.69;10149775;28;20659;-71
2022/03/06 00:53:23;;;;;;;8.35;4.20;;;;;;;2.57;100.00;102578.56;10153081;28;20050;-71
2022/03/06 00:58:20;;;;;;;9.70;3.60;;;;;;;2.81;100.00;102584.22;10151700;28;20509;-71
2022/03/06 01:03:19;;;;;;;8.05;3.30;;;;;;;2.66;100.00;102577.25;10154013;28;20516;-71
2022/03/06 01:08:16;;;;;;;6.82;3.30;;;;;;;2.34;100.00;102579.13;10137851;28;20638;-72
2022/03/06 01:13:13;;;;;;;6.50;3.63;;;;;;;2.59;100.00;102584.59;10138461;28;20156;-71
2022/03/06 01:18:10;;;;;;;5.93;3.47;;;;;;;2.54;100.00;102581.72;10132811;28;20074;-71
2022/03/06 01:23:08;;;;;;;8.38;3.67;;;;;;;2.64;100.00;102590.16;10140013;28;20489;-73
2022/03/06 01:28:04;;;;;;;8.18;3.83;;;;;;;2.56;100.00;102593.13;10136867;28;20582;-68
2022/03/06 01:33:01;;;;;;;6.65;3.40;;;;;;;2.50;100.00;102596.69;10141349;28;20085;-67
2022/03/06 01:37:58;;;;;;;8.82;3.40;;;;;;;2.60;100.00;102598.91;10131009;28;20141;-67
2022/03/06 01:42:55;;;;;;;6.32;3.40;;;;;;;2.58;100.00;102595.63;10148785;28;20112;-67
2022/03/06 01:47:53;;;;;;;7.20;3.35;;;;;;;2.51;100.00;102595.66;10135860;28;20763;-67
2022/03/06 01:52:52;;;;;;;9.82;3.40;;;;;;;2.56;100.00;102590.44;10137611;28;20108;-67
2022/03/06 01:57:48;;;;;;;7.35;3.40;;;;;;;2.53;100.00;102596.28;10133151;28;20460;-69
2022/03/06 02:02:45;;;;;;;8.48;3.40;;;;;;;2.62;100.00;102596.81;10152136;28;20100;-68
2022/03/06 02:07:42;;;;;;;7.28;3.78;;;;;;;2.59;100.00;102586.47;10135350;28;20105;-68
2022/03/06 02:12:38;;;;;;;8.05;3.47;;;;;;;2.41;100.00;102584.50;10152908;28;20077;-67
2022/03/06 02:17:37;;;;;;;6.88;3.55;;;;;;;2.45;100.00;102586.53;10125972;28;20101;-66
2022/03/06 02:22:43;;;;;;;8.00;3.03;;;;;;;2.30;100.00;102578.75;10136681;28;20056;-67
2022/03/06 02:27:39;;;;;;;8.45;3.33;;;;;;;2.41;100.00;102579.91;10130948;28;20516;-67
2022/03/06 02:32:37;;;;;;;8.32;3.47;;;;;;;2.32;100.00;102578.53;10150274;28;20524;-67
2022/03/06 02:37:34;;;;;;;6.60;3.35;;;;;;;2.40;100.00;102577.47;10139030;28;20077;-66
2022/03/06 02:42:33;;;;;;;6.72;3.45;;;;;;;2.33;100.00;102573.97;10150571;28;20054;-65
2022/03/06 02:47:30;;;;;;;7.60;2.75;;;;;;;2.38;100.00;102579.53;10131775;28;20046;-66
2022/03/06 02:52:26;;;;;;;9.52;3.10;;;;;;;2.28;100.00;102575.44;10149390;28;20141;-66
2022/03/06 02:57:22;;;;;;;6.28;2.83;;;;;;;2.19;100.00;102565.94;10127101;28;20078;-66
2022/03/06 03:02:19;;;;;;;6.05;2.80;;;;;;;2.31;100.00;102564.19;10144640;28;20128;-66
2022/03/06 03:07:15;;;;;;;7.38;3.00;;;;;;;2.50;100.00;102569.69;10133431;28;20500;-66
2022/03/06 03:12:12;;;;;;;9.10;2.80;;;;;;;2.31;100.00;102564.19;10140671;28;20054;-66
2022/03/06 03:17:08;;;;;;;6.68;2.65;;;;;;;2.18;100.00;102564.31;10139058;28;20097;-66
2022/03/06 03:22:05;;;;;;;5.07;2.17;;;;;;;2.38;100.00;102566.03;10138351;28;20046;-65
2022/03/06 03:27:02;;;;;;;6.82;2.05;;;;;;;2.35;100.00;102563.78;10126535;28;20042;-65
2022/03/06 03:31:58;;;;;;;5.30;2.28;;;;;;;2.29;100.00;102569.00;10126732;28;20104;-66
2022/03/06 03:36:55;;;;;;;5.10;2.33;;;;;;;1.97;100.00;102570.00;10125263;28;20536;-63
2022/03/06 03:41:51;;;;;;;4.65;2.08;;;;;;;2.37;100.00;102577.88;10119685;28;20871;-64
2022/03/06 03:46:47;;;;;;;7.22;2.08;;;;;;;2.33;100.00;102576.66;10122090;28;20116;-66
2022/03/06 03:51:44;;;;;;;7.10;2.00;;;;;;;2.20;100.00;102589.19;10146776;28;20050;-64
2022/03/06 03:56:42;;;;;;;11.85;2.88;;;;;;;2.16;100.00;102581.72;10140802;28;20046;-68
2022/03/06 04:01:39;;;;;;;6.55;2.38;;;;;;;2.29;100.00;102585.19;10139106;28;20081;-65
2022/03/06 04:06:35;;;;;;;6.47;2.03;;;;;;;2.41;100.00;102589.91;10125035;28;20074;-65
2022/03/06 04:11:32;;;;;;;5.13;1.58;;;;;;;2.20;100.00;102586.47;10122885;28;20112;-64
2022/03/06 04:16:29;;;;;;;5.32;1.67;;;;;;;2.31;100.00;102588.50;10146506;28;20085;-67
2022/03/06 04:21:26;;;;;;;6.75;1.88;;;;;;;2.26;100.00;102587.50;10152732;28;20133;-67
2022/03/06 04:26:22;;;;;;;7.85;2.28;;;;;;;2.20;100.00;102586.47;10146520;28;20104;-64
2022/03/06 04:31:19;;;;;;;4.55;2.03;;;;;;;2.16;100.00;102596.06;10145379;28;20113;-66
2022/03/06 04:36:15;;;;;;;5.43;2.17;;;;;;;2.13;100.00;102593.78;10141390;28;20109;-67
2022/03/06 04:41:12;;;;;;;6.10;1.77;;;;;;;2.12;100.00;102592.13;10148567;28;20050;-67
2022/03/06 04:46:08;;;;;;;3.97;1.40;;;;;;;2.04;100.00;102595.06;10132120;28;20070;-67
2022/03/06 04:51:05;;;;;;;5.15;1.42;;;;;;;2.02;100.00;102607.94;10152820;28;20054;-67
2022/03/06 04:56:02;;;;;;;3.97;1.60;;;;;;;2.10;100.00;102605.00;10127225;28;20106;-66
2022/03/06 05:00:59;;;;;;;3.58;1.42;;;;;;;1.99;100.00;102602.97;10148880;28;20756;-67
2022/03/06 05:05:56;;;;;;;3.65;1.45;;;;;;;2.14;100.00;102598.16;10142761;28;20050;-66
2022/03/06 05:10:53;;;;;;;4.95;1.67;;;;;;;2.11;100.00;102601.25;10129555;28;20121;-67
2022/03/06 05:15:50;;;;;;;7.20;1.63;;;;;;;2.20;100.00;102599.97;10142228;28;20046;-66
2022/03/06 05:20:47;;;;;;;4.88;1.77;;;;;;;1.95;100.00;102596.34;10124454;28;20061;-64
2022/03/06 05:25:45;;;;;;;6.40;1.48;;;;;;;2.10;100.00;102588.81;10146888;28;20063;-67
2022/03/06 05:30:42;;;;;;;4.38;1.75;;;;;;;2.07;100.00;102608.97;10145826;28;20042;-64
2022/03/06 05:35:39;;;;;;;5.65;1.98;;;;;;;2.25;100.00;102605.56;10148480;28;20073;-65
2022/03/06 05:40:35;;;;;;;5.22;1.77;;;;;;;2.22;100.00;102603.28;10151497;28;20081;-68
2022/03/06 05:45:31;;;;;;;7.15;1.80;;;;;;;2.25;100.00;102605.56;10145620;28;20050;-66
2022/03/06 05:50:28;;;;;;;4.30;1.45;;;;;;;2.23;100.00;102615.75;10149394;28;20049;-68
2022/03/06 05:55:24;;;;;;;4.88;1.77;;;;;;;2.26;100.00;102609.09;10145727;28;20062;-68
2022/03/06 06:00:21;;;;;;;4.25;1.55;;;;;;;1.82;100.00;102619.66;10127801;28;20062;-68
2022/03/06 06:05:18;;;;;;;4.03;1.70;;;;;;;2.03;100.00;102610.44;10142310;28;20054;-66
2022/03/06 06:10:15;;;;;;;4.35;2.00;;;;;;;1.88;100.00;102624.22;10122676;28;20483;-66
2022/03/06 06:15:12;;;;;;;5.85;1.85;;;;;;;1.67;100.00;102622.59;10146032;28;20117;-66
2022/03/06 06:20:10;;;;;;;6.15;2.35;;;;;;;2.03;100.00;102626.63;10132836;28;20113;-66
2022/03/06 06:25:07;;;;;;;4.03;1.85;;;;;;;2.06;100.00;102631.59;10134393;28;20137;-69
2022/03/06 06:30:04;;;;;;;4.63;1.83;;;;;;;1.92;100.00;102631.88;10142819;28;20049;-68
2022/03/06 06:35:00;;;;;;;5.93;1.88;;;;;;;2.11;100.00;102639.03;10147046;28;20137;-67
2022/03/06 06:39:56;;;;;;;5.40;1.80;;;;;;;2.06;100.00;102646.97;10149553;28;20081;-67
2022/03/06 06:44:53;;;;;;;7.00;1.70;;;;;;;2.14;100.00;102652.13;10146149;28;20100;-66
2022/03/06 06:49:50;;;;;;;5.28;1.85;;;;;;;2.09;100.00;102651.94;10139248;28;20085;-67
2022/03/06 06:54:46;;;;;;;5.75;2.20;;;;;;;2.26;100.00;102653.09;10141632;28;20091;-66
2022/03/06 06:59:43;;;;;;;7.80;2.10;;;;;;;2.19;100.00;102652.31;10145864;28;20047;-67
2022/03/06 07:04:39;;;;;;;4.47;1.85;;;;;;;2.10;100.00;102659.00;10140327;28;20686;-67
2022/03/06 07:09:36;;;;;;;6.30;2.17;;;;;;;2.31;100.00;102674.06;10119589;28;20562;-67
2022/03/06 07:14:32;;;;;;;5.65;2.42;;;;;;;2.15;100.00;102672.66;10140751;28;20043;-67
2022/03/06 07:19:29;;;;;;;8.68;2.70;;;;;;;2.13;100.00;102680.13;10141179;28;20093;-67
2022/03/06 07:24:26;;;;;;;4.07;1.70;;;;;;;2.33;100.00;102668.47;10141199;28;20523;-70
2022/03/06 07:29:23;;;;;;;6.70;2.72;;;;;;;2.16;100.00;102668.94;10145719;28;20101;-67
2022/03/06 07:34:20;;;;;;;4.82;1.98;;;;;;;2.39;100.00;102664.88;10140561;28;20046;-66
2022/03/06 07:39:16;;;;;;;6.40;2.20;;;;;;;2.47;100.00;102670.03;10134825;28;20046;-67
2022/03/06 07:44:12;;;;;;;6.05;2.30;;;;;;;2.68;100.00;102667.00;10146280;28;20113;-68
2022/03/06 07:49:09;;;;;;;6.47;2.42;;;;;;;2.67;99.30;102670.75;10144573;28;20059;-67
2022/03/06 07:54:08;;;;;;;6.40;2.10;;;;;;;2.69;97.73;102668.69;10146044;28;20136;-67
2022/03/06 07:59:04;;;;;;;5.47;1.80;;;;;;;2.83;94.00;102673.97;10144719;28;20074;-66
2022/03/06 08:04:00;;;;;;;5.50;2.47;;;;;;;2.95;92.72;102666.84;10145302;28;20141;-66
2022/03/06 08:08:57;;;;;;;4.43;1.77;;;;;;;3.10;92.25;102670.03;10138089;28;20086;-67
2022/03/06 08:13:54;;;;;;;3.95;1.70;;;;;;;3.19;92.95;102680.59;10131104;28;20133;-64
2022/03/06 08:18:51;;;;;;;2.78;1.23;;;;;;;3.27;89.92;102677.59;10143954;28;20173;-74
2022/03/06 08:23:49;;;;;;;5.70;1.95;;;;;;;3.10;91.19;102675.44;10142264;28;20101;-67
2022/03/06 08:28:45;;;;;;;6.93;1.52;;;;;;;2.84;88.17;102681.06;10141747;28;20115;-66
2022/03/06 08:33:42;;;;;;;3.90;1.70;;;;;;;2.97;90.10;102686.38;10141965;28;20050;-67
2022/03/06 08:38:39;;;;;;;5.93;1.77;;;;;;;3.00;85.18;102687.81;10140271;28;20109;-66
2022/03/06 08:43:35;;;;;;;5.10;1.80;;;;;;;3.01;85.08;102676.75;10142011;28;20146;-66
2022/03/06 08:48:32;;;;;;;4.28;1.90;;;;;;;3.17;82.96;102678.94;10138219;28;20038;-66
2022/03/06 08:53:29;;;;;;;3.28;1.20;;;;;;;3.31;85.34;102684.22;10144771;28;20476;-67
2022/03/06 08:58:26;;;;;;;7.78;1.80;;;;;;;3.38;79.38;102685.00;10143170;28;21440;-66
2022/03/06 09:03:22;;;;;;;5.50;1.30;;;;;;;3.59;77.40;102673.78;10142049;28;20073;-70
2022/03/06 09:08:19;;;;;;;4.60;1.83;;;;;;;3.79;76.04;102675.47;10141484;28;20046;-70
2022/03/06 09:13:16;;;;;;;3.55;1.58;;;;;;;3.96;75.27;102665.69;10141055;28;20043;-71
2022/03/06 09:18:12;;;;;;;4.30;1.55;;;;;;;3.86;74.53;102668.09;10134443;28;20077;-70
2022/03/06 09:23:09;;;;;;;4.80;1.80;;;;;;;4.15;73.97;102666.50;10134382;28;20073;-71
2022/03/06 09:28:06;;;;;;;2.95;1.52;;;;;;;4.23;69.17;102673.50;10135331;28;20058;-70
2022/03/06 09:33:03;;;;;;;5.05;1.60;;;;;;;4.07;67.31;102676.84;10138180;28;20076;-70
2022/03/06 09:37:59;;;;;;;4.15;1.40;;;;;;;4.38;67.10;102665.81;10136132;28;20050;-70
2022/03/06 09:42:56;;;;;;;5.20;1.60;;;;;;;4.65;64.05;102665.47;10137284;28;20054;-71
2022/03/06 09:47:53;;;;;;;4.50;1.88;;;;;;;4.68;59.92;102667.69;10140409;28;20073;-71
2022/03/06 09:52:51;;;;;;;3.83;1.30;;;;;;;4.95;60.07;102680.88;10143433;28;20092;-71
2022/03/06 09:57:58;;;;;;;6.88;1.90;;;;;;;5.16;56.44;102679.50;10144452;28;20046;-71
2022/03/06 10:02:59;;;;;;;3.42;1.50;;;;;;;5.27;56.12;102682.22;10143913;28;20085;-71
2022/03/06 10:08:27;;;;;;;4.70;1.45;;;;;;;5.85;55.94;102690.63;10139147;28;20534;-72
2022/03/06 10:13:29;;;;;;;5.78;1.63;;;;;;;6.47;55.64;102693.56;10132269;28;20054;-73
2022/03/06 10:18:29;;;;;;;9.10;1.60;;;;;;;6.44;54.15;102704.09;10132525;28;20556;-72
2022/03/06 10:23:26;;;;;;;5.18;1.90;;;;;;;5.42;56.70;102698.03;10138368;28;20121;-71
2022/03/06 10:28:23;;;;;;;5.10;2.00;;;;;;;5.27;57.75;102695.78;10139797;28;20595;-71
2022/03/06 10:33:21;;;;;;;4.00;1.50;;;;;;;5.42;59.03;102684.47;10143087;28;20136;-71
2022/03/06 10:38:26;;;;;;;4.78;1.60;;;;;;;6.05;62.43;102685.63;10145566;28;20452;-71
2022/03/06 10:43:28;;;;;;;5.57;2.17;;;;;;;6.44;57.60;102688.63;10147340;28;20058;-71
2022/03/06 10:48:25;;;;;;;5.88;1.70;;;;;;;6.67;52.58;102689.59;10129560;28;20046;-72
2022/03/06 10:53:25;;;;;;;5.53;1.60;;;;;;;6.73;51.37;102686.75;10141346;28;20112;-71
2022/03/06 10:58:21;;;;;;;4.35;1.60;;;;;;;6.33;51.23;102675.88;10140396;28;20198;-71
2022/03/06 11:03:19;;;;;;;6.88;2.22;;;;;;;6.03;50.72;102693.19;10141781;28;20053;-71
2022/03/06 11:08:18;;;;;;;5.32;1.90;;;;;;;5.92;53.94;102688.59;10139647;28;20516;-71
2022/03/06 11:13:14;;;;;;;7.80;2.38;;;;;;;6.20;50.66;102676.19;10139876;28;20046;-71
2022/03/06 11:18:11;;;;;;;3.90;1.60;;;;;;;7.03;53.67;102671.19;10141122;28;20058;-72
2022/03/06 11:23:29;;;;;;;4.63;2.00;;;;;;;7.46;51.41;102672.44;10123778;28;20598;-70
2022/03/06 11:28:55;;;;;;;3.63;1.52;;;;;;;7.61;51.26;102669.94;10129403;28;20125;-70
2022/03/06 11:33:57;;;;;;;4.80;1.60;;;;;;;8.00;51.30;102661.75;10142215;28;20054;-70
2022/03/06 11:38:54;;;;;;;4.45;1.70;;;;;;;7.47;48.77;102672.19;10128637;28;20081;-70
2022/03/06 11:43:51;;;;;;;5.95;2.40;;;;;;;7.10;51.19;102659.09;10145763;28;20193;-70
2022/03/06 11:48:50;;;;;;;6.22;2.22;;;;;;;6.37;51.91;102655.31;10138300;28;20046;-70
2022/03/06 11:53:55;;;;;;;4.90;1.95;;;;;;;6.93;56.24;102653.63;10142757;28;20137;-70
2022/03/06 11:58:53;;;;;;;7.43;2.50;;;;;;;8.06;54.83;102644.41;10144883;28;20500;-70
2022/03/06 12:03:49;;;;;;;6.32;2.28;;;;;;;7.82;49.85;102643.84;10144506;28;20043;-70
2022/03/06 12:08:46;;;;;;;6.53;2.30;;;;;;;7.78;50.57;102638.06;10133569;28;20077;-71
2022/03/06 12:13:49;;;;;;;7.22;2.30;;;;;;;7.86;53.86;102627.81;10143004;28;20100;-70
2022/03/06 12:19:01;;;;;;;5.47;2.70;;;;;;;8.27;52.48;102622.84;10127103;28;20051;-71
2022/03/06 12:24:11;;;;;;;4.60;2.28;;;;;;;7.59;52.58;102634.00;10141566;28;21035;-70
2022/03/06 12:29:08;;;;;;;5.80;2.60;;;;;;;6.91;56.42;102634.00;10148497;28;20665;-69
2022/03/06 12:34:39;;;;;;;7.05;2.50;;;;;;;6.97;58.39;102620.53;10136118;28;20124;-70
2022/03/06 12:39:37;;;;;;;8.15;2.60;;;;;;;7.95;59.25;102616.19;10128779;28;20039;-70
2022/03/06 12:44:37;;;;;;;6.38;2.47;;;;;;;8.82;57.26;102614.44;10135694;28;20077;-67
2022/03/06 12:49:34;;;;;;;7.00;2.47;;;;;;;8.78;52.94;102607.03;10136976;28;20046;-66
2022/03/06 12:54:33;;;;;;;6.35;2.20;;;;;;;9.33;52.00;102597.63;10139898;28;20096;-66
2022/03/06 12:59:29;;;;;;;8.00;2.50;;;;;;;9.42;50.46;102596.03;10144850;28;20062;-70
2022/03/06 13:04:26;;;;;;;5.68;2.33;;;;;;;8.12;51.47;102599.81;10133292;28;20475;-70
2022/03/06 13:09:27;;;;;;;8.07;2.47;;;;;;;7.81;53.02;102590.44;10165864;28;20047;-70
2022/03/06 13:14:33;;;;;;;6.13;2.80;;;;;;;7.33;59.12;102581.91;10147894;28;20058;-70
2022/03/06 13:19:44;;;;;;;5.50;2.35;;;;;;;7.23;59.12;102589.91;10127981;28;20128;-70
2022/03/06 13:24:46;;;;;;;7.55;3.75;;;;;;;7.45;61.16;102589.97;10141794;28;20074;-70
2022/03/06 13:29:56;;;;;;;5.25;3.03;;;;;;;7.06;62.04;102581.78;10147212;28;20104;-70
2022/03/06 13:34:53;;;;;;;5.35;2.60;;;;;;;6.86;64.80;102587.69;10138036;28;20090;-70
2022/03/06 13:39:53;;;;;;;7.43;2.75;;;;;;;6.83;65.52;102571.91;10142559;28;20050;-69
2022/03/06 13:44:56;;;;;;;5.45;2.40;;;;;;;7.10;64.70;102565.75;10141197;28;20081;-69
2022/03/06 13:50:01;;;;;;;5.53;2.22;;;;;;;7.32;63.39;102558.47;10143084;28;20054;-70
2022/03/06 13:55:10;;;;;;;6.60;2.38;;;;;;;7.13;67.81;102559.84;10132719;28;20077;-70
2022/03/06 14:00:24;;;;;;;6.60;2.78;;;;;;;7.53;63.74;102558.75;10128296;28;20559;-68
2022/03/06 14:05:25;;;;;;;;;;;;;;;7.65;61.11;102550.47;10136887;28;20078;-69
2022/03/06 14:10:42;;;;;;;6.40;2.22;;;;;;;7.66;62.16;102546.66;10132663;28;20676;-69
2022/03/06 14:15:38;;;;;;;6.88;2.28;;;;;;;8.27;58.11;102552.00;10132345;28;20054;-69
2022/03/06 14:20:47;;;;;;;6.63;2.40;;;;;;;8.85;54.25;102551.16;10133433;28;20046;-69
2022/03/06 14:25:43;;;;;;;6.43;2.80;;;;;;;10.49;52.24;102545.59;10139486;28;20101;-69
2022/03/06 14:30:40;;;;;;;4.68;2.30;;;;;;;10.86;48.01;102547.22;10137065;28;20400;-69
2022/03/06 14:35:37;;;;;;;5.63;2.17;;;;;;;10.19;45.87;102543.59;10135739;28;20046;-70
2022/03/06 14:40:34;;;;;;;5.20;2.20;;;;;;;9.89;47.26;102546.00;10137682;28;20118;-70
2022/03/06 14:45:30;;;;;;;6.18;2.00;;;;;;;9.10;49.21;102544.25;10140020;28;20167;-70
2022/03/06 14:50:27;;;;;;;5.32;2.53;;;;;;;9.41;50.12;102547.97;10133326;28;20046;-70
2022/03/06 14:55:23;;;;;;;6.50;3.13;;;;;;;8.67;51.01;102550.75;10129645;28;20066;-69
2022/03/06 15:00:20;;;;;;;5.55;2.35;;;;;;;9.00;52.36;102536.81;10135133;28;20455;-68
2022/03/06 15:05:16;;;;;;;8.05;3.10;;;;;;;9.39;51.17;102536.50;10133004;28;20077;-68
2022/03/06 15:10:13;;;;;;;7.53;2.42;;;;;;;9.59;50.10;102543.16;10140792;28;20042;-69
2022/03/06 15:15:09;;;;;;;5.72;3.08;;;;;;;9.65;49.32;102537.44;10136835;28;20133;-69
2022/03/06 15:20:06;;;;;;;5.28;1.80;;;;;;;10.29;49.55;102539.00;10132990;28;20088;-69
2022/03/06 15:25:04;;;;;;;6.80;2.45;;;;;;;10.43;48.03;102533.00;10140157;28;20050;-69
2022/03/06 15:30:00;;;;;;;4.80;2.30;;;;;;;10.11;48.87;102542.22;10139899;28;20039;-69
2022/03/06 15:34:57;;;;;;;6.13;2.00;;;;;;;9.33;51.13;102532.13;10143760;28;20062;-68
2022/03/06 15:39:53;;;;;;;7.15;2.05;;;;;;;8.86;50.59;102538.34;10133125;28;20070;-69
2022/03/06 15:44:50;;;;;;;6.05;2.25;;;;;;;8.17;53.56;102534.47;10131297;28;20069;-69
2022/03/06 15:49:47;;;;;;;5.18;2.35;;;;;;;8.32;58.31;102527.50;10133045;28;20122;-69
2022/03/06 15:54:43;;;;;;;7.50;2.00;;;;;;;8.23;59.07;102530.69;10141139;28;20218;-68
2022/03/06 15:59:41;;;;;;;4.82;2.20;;;;;;;7.57;57.31;102527.25;10135428;28;20050;-69
2022/03/06 16:04:37;;;;;;;6.65;2.67;;;;;;;7.85;58.37;102528.13;10143306;28;20117;-68
2022/03/06 16:09:34;;;;;;;6.18;2.65;;;;;;;7.61;58.68;102512.03;10167584;28;20552;-68
2022/03/06 16:14:31;;;;;;;7.45;2.70;;;;;;;7.20;61.26;102522.41;10155355;28;20046;-68
2022/03/06 16:19:28;;;;;;;9.35;2.92;;;;;;;7.03;64.18;102524.31;10153803;28;20134;-67
2022/03/06 16:24:25;;;;;;;7.45;2.58;;;;;;;6.97;69.05;102528.06;10139964;28;20093;-68
2022/03/06 16:29:21;;;;;;;9.25;2.40;;;;;;;6.90;69.47;102512.72;10133230;28;20132;-68
2022/03/06 16:34:18;;;;;;;5.55;1.90;;;;;;;6.96;73.16;102516.31;10147788;28;20089;-69
2022/03/06 16:39:14;;;;;;;7.15;2.35;;;;;;;6.91;71.96;102525.22;10147914;28;20138;-68
2022/03/06 16:44:14;;;;;;;9.05;2.45;;;;;;;6.53;75.00;102524.09;10150999;28;20568;-69
2022/03/06 16:49:10;;;;;;;6.35;2.33;;;;;;;6.63;74.44;102528.06;10141689;28;20049;-68
2022/03/06 16:54:07;;;;;;;7.90;2.30;;;;;;;6.53;79.89;102534.97;10139746;28;20081;-68
2022/03/06 16:59:03;;;;;;;6.50;2.30;;;;;;;6.38;81.25;102531.97;10158269;28;20081;-68
2022/03/06 17:04:00;;;;;;;7.13;2.40;;;;;;;6.20;85.09;102530.31;10163099;28;20488;-68
2022/03/06 17:08:56;;;;;;;8.88;2.78;;;;;;;6.17;88.65;102536.22;10148631;28;20050;-68
2022/03/06 17:13:53;;;;;;;6.38;2.85;;;;;;;6.05;88.11;102541.72;10144261;28;20144;-69
2022/03/06 17:18:51;;;;;;;11.82;3.10;;;;;;;5.62;88.37;102548.44;10148591;28;20077;-67
2022/03/06 17:23:48;;;;;;;6.28;2.90;;;;;;;5.90;88.88;102549.53;10141482;28;20097;-68
2022/03/06 17:28:44;;;;;;;6.57;2.42;;;;;;;5.86;93.34;102556.53;10127901;28;20078;-69
2022/03/06 17:33:41;;;;;;;9.40;3.80;;;;;;;5.57;96.24;102559.19;10140629;28;20571;-70
2022/03/06 17:38:38;;;;;;;7.63;2.97;;;;;;;5.31;99.79;102559.69;10141462;28;20082;-70
2022/03/06 17:43:37;;;;;;;6.05;3.03;;;;;;;5.23;100.00;102553.56;10141586;28;20572;-70
2022/03/06 17:48:34;;;;;;;11.63;3.33;;;;;;;5.06;100.00;102552.66;10141118;28;20101;-70
2022/03/06 17:53:32;;;;;;;7.25;3.25;;;;;;;4.98;100.00;102555.69;10144739;28;20141;-70
2022/03/06 17:58:29;;;;;;;9.45;4.53;;;;;;;4.96;100.00;102557.81;10131312;28;20109;-70
2022/03/06 18:03:25;;;;;;;10.80;4.57;;;;;;;4.84;100.00;102555.91;10134887;28;20606;-70
2022/03/06 18:08:22;;;;;;;9.90;5.38;;;;;;;4.70;100.00;102559.91;10135115;28;20073;-70
2022/03/06 18:13:18;;;;;;;16.98;6.50;;;;;;;4.68;100.00;102561.19;10130303;28;20539;-70
2022/03/06 18:18:15;;;;;;;14.90;5.97;;;;;;;4.58;100.00;102567.19;10130069;28;20104;-70
2022/03/06 18:23:12;;;;;;;13.40;6.15;;;;;;;4.46;100.00;102575.28;10168057;28;20489;-69
2022/03/06 18:28:08;;;;;;;12.52;5.22;;;;;;;4.48;100.00;102577.75;10147456;28;20157;-69
2022/03/06 18:33:05;;;;;;;12.65;6.43;;;;;;;4.40;100.00;102582.44;10143122;28;20369;-70
2022/03/06 18:38:02;;;;;;;18.05;6.93;;;;;;;4.39;100.00;102580.81;10129544;28;20144;-70
2022/03/06 18:42:58;;;;;;;16.20;6.25;;;;;;;4.35;100.00;102585.00;10129069;28;20755;-70
2022/03/06 18:47:55;;;;;;;11.95;4.75;;;;;;;4.20;100.00;102603.53;10140709;28;20050;-70
2022/03/06 18:52:51;;;;;;;12.00;5.00;;;;;;;4.31;100.00;102600.06;10142687;28;20104;-70
2022/03/06 18:57:48;;;;;;;19.50;8.30;;;;;;;4.29;100.00;102602.19;10136681;28;20046;-70
2022/03/06 19:02:44;;;;;;;16.20;8.10;;;;;;;4.19;100.00;102608.16;10146504;28;20505;-70
2022/03/06 19:07:41;;;;;;;10.43;5.13;;;;;;;4.10;100.00;102608.69;10144319;28;20042;-70
2022/03/06 19:12:37;;;;;;;14.38;5.93;;;;;;;3.99;100.00;102611.13;10145404;28;20698;-70
2022/03/06 19:17:39;;;;;;;13.05;6.03;;;;;;;4.05;100.00;102603.97;10135414;28;20104;-71
2022/03/06 19:22:35;;;;;;;13.52;6.63;;;;;;;4.06;100.00;102612.91;10144143;28;20133;-71
2022/03/06 19:27:32;;;;;;;23.88;11.77;;;;;;;3.98;100.00;102605.94;10138485;28;20501;-71
2022/03/06 19:32:28;;;;;;;17.85;7.85;;;;;;;3.74;100.00;102607.69;10143327;28;20054;-71
2022/03/06 19:37:26;;;;;;;17.02;7.47;;;;;;;3.81;100.00;102611.13;10145251;28;20129;-71
2022/03/06 19:42:23;;;;;;;23.02;12.30;;;;;;;3.69;100.00;102612.91;10148720;28;20050;-71
2022/03/06 19:47:19;;;;;;;33.83;15.35;;;;;;;3.62;100.00;102618.44;10145248;28;20046;-71
2022/03/06 19:52:16;;;;;;;21.50;10.90;;;;;;;3.59;100.00;102614.25;10146455;28;20109;-71
2022/03/06 19:57:14;;;;;;;33.20;13.65;;;;;;;3.55;100.00;102618.50;10130273;28;20504;-69
2022/03/06 20:02:11;;;;;;;23.90;11.18;;;;;;;3.51;100.00;102628.09;10146588;28;20073;-70
2022/03/06 20:07:07;;;;;;;17.90;8.90;;;;;;;3.48;100.00;102631.25;10129460;28;20051;-71
2022/03/06 20:12:04;;;;;;;19.55;9.60;;;;;;;3.44;100.00;102621.94;10128466;28;20054;-71
2022/03/06 20:17:02;;;;;;;18.90;8.45;;;;;;;3.47;100.00;102626.06;10132868;28;20097;-71
2022/03/06 20:21:58;;;;;;;17.83;8.80;;;;;;;3.37;100.00;102615.75;10135053;28;20047;-71
2022/03/06 20:26:55;;;;;;;13.85;7.80;;;;;;;3.31;100.00;102622.03;10137956;28;20097;-70
2022/03/06 20:31:52;;;;;;;14.57;8.15;;;;;;;3.08;100.00;102623.47;10147810;28;20137;-71
2022/03/06 20:36:49;;;;;;;13.10;7.88;;;;;;;3.03;100.00;102631.44;10144037;28;20941;-71
2022/03/06 20:41:46;;;;;;;14.55;7.47;;;;;;;2.97;100.00;102631.47;10147042;28;20046;-71
2022/03/06 20:46:42;;;;;;;13.40;7.85;;;;;;;2.86;100.00;102636.56;10138125;28;20046;-71
2022/03/06 20:51:39;;;;;;;15.07;8.35;;;;;;;2.81;100.00;102649.03;10153232;28;20519;-71
2022/03/06 20:56:36;;;;;;;17.20;9.23;;;;;;;2.81;100.00;102649.03;10145201;28;20501;-70
2022/03/06 21:01:33;;;;;;;16.25;8.65;;;;;;;2.84;100.00;102648.63;10149594;28;20133;-68
2022/03/06 21:06:29;;;;;;;19.17;9.43;;;;;;;2.88;100.00;102647.97;10138354;28;20126;-68
2022/03/06 21:11:26;;;;;;;18.38;9.40;;;;;;;2.82;100.00;102645.31;10144367;28;20101;-69
2022/03/06 21:16:28;;;;;;;14.57;9.15;;;;;;;2.82;100.00;102650.72;10143615;28;20053;-71
2022/03/06 21:21:24;;;;;;;17.50;10.52;;;;;;;2.77;100.00;102647.84;10135950;28;20058;-73
2022/03/06 21:26:21;;;;;;;14.93;10.15;;;;;;;2.68;100.00;102647.28;10131405;28;20074;-74
2022/03/06 21:31:18;;;;;;;18.95;10.20;;;;;;;2.57;100.00;102653.38;10141624;28;20047;-74
2022/03/06 21:36:20;;;;;;;19.75;12.18;;;;;;;2.68;100.00;102661.59;10138348;28;20100;-74
2022/03/06 21:41:17;;;;;;;20.37;11.67;;;;;;;2.56;100.00;102659.81;10144999;28;20084;-75
2022/03/06 21:46:17;;;;;;;20.65;10.70;;;;;;;2.45;100.00;102655.94;10150994;28;20050;-73
2022/03/06 21:51:16;;;;;;;18.55;11.50;;;;;;;2.44;100.00;102654.28;10152428;28;20057;-73
2022/03/06 21:56:12;;;;;;;16.83;10.27;;;;;;;2.43;100.00;102652.59;10134650;28;20041;-73
2022/03/06 22:01:09;;;;;;;23.60;13.48;;;;;;;2.34;100.00;102653.91;10153123;28;20108;-69
2022/03/06 22:06:06;;;;;;;20.52;12.57;;;;;;;2.26;100.00;102657.69;10150849;28;20050;-70
2022/03/06 22:11:03;;;;;;;18.27;12.45;;;;;;;2.16;100.00;102650.03;10145508;28;20136;-73
2022/03/06 22:15:59;;;;;;;21.80;13.27;;;;;;;2.11;100.00;102655.22;10144506;28;20068;-73
2022/03/06 22:20:56;;;;;;;21.42;12.88;;;;;;;2.08;100.00;102650.28;10135041;28;20061;-69
2022/03/06 22:25:52;;;;;;;26.35;13.88;;;;;;;2.03;100.00;102652.78;10141138;28;20513;-69
2022/03/06 22:30:49;;;;;;;20.30;13.98;;;;;;;2.01;100.00;102644.91;10138674;28;20165;-71
2022/03/06 22:35:47;;;;;;;25.08;13.52;;;;;;;1.93;100.00;102647.84;10139444;28;20049;-71
2022/03/06 22:40:44;;;;;;;20.65;13.48;;;;;;;1.87;100.00;102649.50;10152517;28;20038;-71
2022/03/06 22:45:40;;;;;;;20.20;12.63;;;;;;;1.76;100.00;102647.47;10146256;28;20043;-72
2022/03/06 22:50:37;;;;;;;25.45;14.35;;;;;;;1.69;100.00;102641.25;10150841;28;20663;-69
2022/03/06 22:55:35;;;;;;;24.95;14.93;;;;;;;1.72;100.00;102640.84;10126999;28;20043;-69